AAL842 MKJS-KMIA
Flight info
| Callsign | AAL842 |
|---|---|
| Flight time | N/A |
| Altitude | 36000 |
| Route | ALTIB UM779 ZEUSS VIICE2 |
| Aircraft | B738/M-SDE2E3FGHIRWXY/LB1 |
Departure
| Time | 2026-05-04 10:52 |
|---|---|
| Airport | Sangster International Airport (MKJS) |
Arrival
| Time | N/A |
|---|---|
| Airport | Miami International Airport (KMIA) |
| Time | Latitude | Longitude | Altitude | Speed | Heading |
|---|---|---|---|---|---|
| 2026-05-04 10:45 | 18.50018 | -77.91598 | 11 ft | 4 kts | 228° |
| 2026-05-04 10:45 | 18.50029 | -77.91577 | 9 ft | 4 kts | 290° |
| 2026-05-04 10:45 | 18.50023 | -77.91570 | 13 ft | 1 kts | 335° |
| 2026-05-04 10:46 | 18.50021 | -77.91569 | 13 ft | 0 kts | 335° |
| 2026-05-04 10:49 | 18.49758 | -77.92326 | 9 ft | 21 kts | 249° |
| 2026-05-04 10:49 | 18.49820 | -77.92436 | 9 ft | 21 kts | 343° |
| 2026-05-04 10:50 | 18.49899 | -77.92414 | 10 ft | 8 kts | 60° |
| 2026-05-04 10:51 | 18.50150 | -77.91835 | 13 ft | 119 kts | 65° |
| 2026-05-04 10:52 | 18.50592 | -77.90822 | 110 ft | 177 kts | 64° |
| 2026-05-04 10:52 | 18.51134 | -77.89644 | 992 ft | 180 kts | 64° |
| 2026-05-04 10:52 | 18.51688 | -77.88404 | 1736 ft | 197 kts | 64° |
| 2026-05-04 10:54 | 18.58290 | -77.78361 | 6480 ft | 279 kts | 357° |
| 2026-05-04 10:54 | 18.60204 | -77.78789 | 7248 ft | 284 kts | 348° |
| 2026-05-04 10:56 | 18.75125 | -77.81751 | 11012 ft | 362 kts | 350° |
| 2026-05-04 10:56 | 18.77621 | -77.82209 | 11691 ft | 364 kts | 349° |
| 2026-05-04 10:56 | 18.80133 | -77.82667 | 12372 ft | 367 kts | 349° |
| 2026-05-04 10:57 | 18.82655 | -77.83125 | 13057 ft | 369 kts | 349° |
| 2026-05-04 10:57 | 18.85161 | -77.83580 | 13758 ft | 370 kts | 349° |
| 2026-05-04 10:57 | 18.87742 | -77.84047 | 14337 ft | 373 kts | 349° |
| 2026-05-04 10:57 | 18.90280 | -77.84507 | 14859 ft | 377 kts | 349° |
| 2026-05-04 10:58 | 18.92886 | -77.84979 | 15400 ft | 381 kts | 349° |
| 2026-05-04 10:58 | 18.95502 | -77.85453 | 15950 ft | 384 kts | 349° |
| 2026-05-04 10:58 | 18.98153 | -77.85933 | 16498 ft | 387 kts | 349° |
| 2026-05-04 10:58 | 19.00823 | -77.86417 | 17030 ft | 390 kts | 349° |
| 2026-05-04 10:59 | 19.03508 | -77.86903 | 17555 ft | 393 kts | 348° |
| 2026-05-04 10:59 | 19.06225 | -77.87396 | 18083 ft | 397 kts | 349° |
| 2026-05-04 10:59 | 19.08944 | -77.87889 | 18613 ft | 397 kts | 349° |
| 2026-05-04 10:59 | 19.11679 | -77.88385 | 19095 ft | 399 kts | 348° |
| 2026-05-04 11:00 | 19.14423 | -77.88883 | 19557 ft | 401 kts | 348° |
| 2026-05-04 11:01 | 19.34003 | -77.92441 | 22640 ft | 416 kts | 348° |
| 2026-05-04 11:02 | 19.36862 | -77.92961 | 23049 ft | 418 kts | 348° |
| 2026-05-04 11:02 | 19.39736 | -77.93484 | 23463 ft | 420 kts | 348° |
| 2026-05-04 11:05 | 19.81475 | -78.01105 | 27531 ft | 450 kts | 347° |
| 2026-05-04 11:06 | 19.84573 | -78.01672 | 27794 ft | 452 kts | 347° |
| 2026-05-04 11:06 | 19.87687 | -78.02242 | 28043 ft | 455 kts | 347° |
| 2026-05-04 11:06 | 19.90814 | -78.02815 | 28287 ft | 457 kts | 347° |
| 2026-05-04 11:06 | 19.93954 | -78.03391 | 28531 ft | 459 kts | 347° |
| 2026-05-04 11:08 | 20.16278 | -78.07489 | 30117 ft | 471 kts | 346° |
| 2026-05-04 11:10 | 20.38529 | -78.11582 | 32469 ft | 458 kts | 346° |
| 2026-05-04 11:12 | 20.60189 | -78.15583 | 34627 ft | 449 kts | 345° |
| 2026-05-04 11:12 | 20.63272 | -78.16154 | 34832 ft | 449 kts | 345° |
| 2026-05-04 11:12 | 20.66315 | -78.16717 | 35069 ft | 449 kts | 345° |
| 2026-05-04 11:12 | 20.69395 | -78.17287 | 35313 ft | 448 kts | 345° |
| 2026-05-04 11:13 | 20.72474 | -78.17857 | 35507 ft | 449 kts | 344° |
| 2026-05-04 11:13 | 20.75555 | -78.18428 | 35732 ft | 449 kts | 344° |
| 2026-05-04 11:13 | 20.78636 | -78.18999 | 35928 ft | 449 kts | 343° |
| 2026-05-04 11:13 | 20.81721 | -78.19572 | 36001 ft | 452 kts | 343° |
| 2026-05-04 11:14 | 20.87942 | -78.20728 | 36000 ft | 453 kts | 343° |
| 2026-05-04 11:16 | 21.12429 | -78.25277 | 36008 ft | 444 kts | 343° |
| 2026-05-04 11:16 | 21.18529 | -78.26414 | 36009 ft | 445 kts | 343° |
| 2026-05-04 11:17 | 21.24641 | -78.27555 | 36017 ft | 446 kts | 343° |
| 2026-05-04 11:19 | 21.49256 | -78.32156 | 36011 ft | 453 kts | 343° |
| 2026-05-04 11:19 | 21.55477 | -78.33321 | 36019 ft | 454 kts | 343° |
| 2026-05-04 11:20 | 21.61721 | -78.34490 | 36022 ft | 455 kts | 343° |
| 2026-05-04 11:20 | 21.67965 | -78.35661 | 36009 ft | 455 kts | 343° |
| 2026-05-04 11:22 | 21.92843 | -78.40336 | 36015 ft | 451 kts | 343° |
| 2026-05-04 11:23 | 21.99026 | -78.41501 | 36015 ft | 450 kts | 343° |
| 2026-05-04 11:25 | 22.20557 | -78.45568 | 36017 ft | 450 kts | 342° |
| 2026-05-04 11:25 | 22.26731 | -78.46736 | 36018 ft | 451 kts | 342° |
| 2026-05-04 11:27 | 22.54684 | -78.52037 | 36015 ft | 455 kts | 342° |
| 2026-05-04 11:28 | 22.60893 | -78.53218 | 36017 ft | 456 kts | 342° |
| 2026-05-04 11:28 | 22.67146 | -78.54407 | 36015 ft | 456 kts | 342° |
| 2026-05-04 11:29 | 22.73396 | -78.55598 | 36025 ft | 456 kts | 342° |
| 2026-05-04 11:29 | 22.79649 | -78.56788 | 36018 ft | 456 kts | 342° |
| 2026-05-04 11:33 | 23.23363 | -78.65022 | 36016 ft | 455 kts | 342° |
| 2026-05-04 11:33 | 23.29611 | -78.66203 | 36016 ft | 455 kts | 342° |
| 2026-05-04 11:34 | 23.35853 | -78.67385 | 36036 ft | 455 kts | 341° |
| 2026-05-04 11:34 | 23.42099 | -78.68570 | 36025 ft | 455 kts | 341° |
| 2026-05-04 11:35 | 23.47289 | -78.69554 | 36012 ft | 455 kts | 341° |
| 2026-05-04 11:35 | 23.53526 | -78.70738 | 36011 ft | 455 kts | 341° |
| 2026-05-04 11:36 | 23.59759 | -78.71923 | 36016 ft | 454 kts | 341° |
| 2026-05-04 11:36 | 23.65982 | -78.73107 | 36040 ft | 454 kts | 341° |
| 2026-05-04 11:37 | 23.72223 | -78.74295 | 36023 ft | 454 kts | 341° |
| 2026-05-04 11:37 | 23.78448 | -78.75482 | 36017 ft | 454 kts | 341° |
| 2026-05-04 11:38 | 23.84633 | -78.76662 | 36016 ft | 454 kts | 341° |
| 2026-05-04 11:38 | 23.90851 | -78.77850 | 36017 ft | 453 kts | 341° |
| 2026-05-04 11:39 | 23.97073 | -78.79039 | 36017 ft | 453 kts | 341° |
| 2026-05-04 11:40 | 24.12736 | -78.87982 | 35992 ft | 403 kts | 320° |
| 2026-05-04 11:41 | 24.15097 | -78.89542 | 35997 ft | 389 kts | 319° |
| 2026-05-04 11:41 | 24.17382 | -78.91050 | 35993 ft | 376 kts | 319° |
| 2026-05-04 11:41 | 24.19581 | -78.92502 | 35994 ft | 362 kts | 319° |
| 2026-05-04 11:42 | 24.23847 | -78.95339 | 36029 ft | 362 kts | 319° |
| 2026-05-04 11:42 | 24.28190 | -78.98238 | 35623 ft | 365 kts | 319° |
| 2026-05-04 11:42 | 24.30343 | -78.99668 | 35038 ft | 369 kts | 319° |
| 2026-05-04 11:43 | 24.32590 | -79.01169 | 33894 ft | 389 kts | 320° |
| 2026-05-04 11:43 | 24.34976 | -79.02768 | 32468 ft | 413 kts | 321° |
| 2026-05-04 11:43 | 24.37459 | -79.04415 | 31777 ft | 417 kts | 322° |
| 2026-05-04 11:43 | 24.39924 | -79.06038 | 31496 ft | 410 kts | 322° |
| 2026-05-04 11:44 | 24.42343 | -79.07633 | 31229 ft | 402 kts | 322° |
| 2026-05-04 11:44 | 24.44724 | -79.09212 | 30837 ft | 398 kts | 322° |
| 2026-05-04 11:44 | 24.47083 | -79.10783 | 30395 ft | 396 kts | 322° |
| 2026-05-04 11:44 | 24.49427 | -79.12344 | 29959 ft | 393 kts | 322° |
| 2026-05-04 11:45 | 24.51756 | -79.13895 | 29493 ft | 389 kts | 322° |
| 2026-05-04 11:45 | 24.54064 | -79.15432 | 29031 ft | 386 kts | 322° |
| 2026-05-04 11:45 | 24.56355 | -79.16958 | 28538 ft | 383 kts | 322° |
| 2026-05-04 11:45 | 24.58626 | -79.18473 | 28065 ft | 381 kts | 322° |
| 2026-05-04 11:46 | 24.60881 | -79.19978 | 27607 ft | 378 kts | 323° |
| 2026-05-04 11:46 | 24.63121 | -79.21473 | 27182 ft | 375 kts | 322° |
| 2026-05-04 11:46 | 24.65343 | -79.22957 | 26765 ft | 372 kts | 322° |
| 2026-05-04 11:46 | 24.67547 | -79.24430 | 26324 ft | 369 kts | 323° |
| 2026-05-04 11:47 | 24.69741 | -79.25897 | 25879 ft | 367 kts | 323° |
| 2026-05-04 11:47 | 24.71919 | -79.27355 | 25449 ft | 365 kts | 323° |
| 2026-05-04 11:47 | 24.74085 | -79.28805 | 25036 ft | 363 kts | 323° |
| 2026-05-04 11:47 | 24.76207 | -79.30226 | 24634 ft | 361 kts | 323° |
| 2026-05-04 11:48 | 24.78346 | -79.31658 | 24231 ft | 359 kts | 323° |
| 2026-05-04 11:48 | 24.80477 | -79.33086 | 23834 ft | 357 kts | 323° |
| 2026-05-04 11:48 | 24.82597 | -79.34506 | 23422 ft | 355 kts | 323° |
| 2026-05-04 11:48 | 24.84705 | -79.35918 | 22966 ft | 353 kts | 323° |
| 2026-05-04 11:49 | 24.86801 | -79.37323 | 22503 ft | 352 kts | 323° |
| 2026-05-04 11:49 | 24.88883 | -79.38719 | 22045 ft | 350 kts | 323° |
| 2026-05-04 11:49 | 24.90968 | -79.40119 | 21601 ft | 349 kts | 323° |
| 2026-05-04 11:49 | 24.93037 | -79.41508 | 21180 ft | 347 kts | 323° |
| 2026-05-04 11:50 | 24.95095 | -79.42890 | 20760 ft | 346 kts | 323° |
| 2026-05-04 11:50 | 24.97119 | -79.44252 | 20363 ft | 345 kts | 322° |
| 2026-05-04 11:50 | 24.99165 | -79.45628 | 19968 ft | 344 kts | 322° |
| 2026-05-04 11:50 | 25.01206 | -79.47000 | 19563 ft | 343 kts | 322° |
| 2026-05-04 11:51 | 25.03243 | -79.48371 | 19153 ft | 342 kts | 322° |
| 2026-05-04 11:51 | 25.05268 | -79.49734 | 18779 ft | 340 kts | 322° |
| 2026-05-04 11:51 | 25.07282 | -79.51090 | 18396 ft | 339 kts | 322° |
| 2026-05-04 11:51 | 25.09295 | -79.52446 | 17969 ft | 338 kts | 322° |
| 2026-05-04 11:52 | 25.11295 | -79.53793 | 17579 ft | 335 kts | 323° |
| 2026-05-04 11:52 | 25.13277 | -79.55127 | 17214 ft | 332 kts | 323° |
| 2026-05-04 11:52 | 25.15239 | -79.56449 | 16838 ft | 330 kts | 323° |
| 2026-05-04 11:52 | 25.17192 | -79.57766 | 16447 ft | 328 kts | 323° |
| 2026-05-04 11:53 | 25.19135 | -79.59077 | 16070 ft | 326 kts | 323° |
| 2026-05-04 11:53 | 25.21064 | -79.60380 | 15706 ft | 323 kts | 323° |
| 2026-05-04 11:53 | 25.22975 | -79.61671 | 15353 ft | 321 kts | 323° |
| 2026-05-04 11:53 | 25.24874 | -79.62954 | 15000 ft | 319 kts | 323° |
| 2026-05-04 11:55 | 25.37804 | -79.71705 | 12512 ft | 304 kts | 323° |
| 2026-05-04 11:55 | 25.39581 | -79.72941 | 12218 ft | 299 kts | 320° |
| 2026-05-04 11:56 | 25.41255 | -79.74240 | 12106 ft | 288 kts | 319° |
| 2026-05-04 11:56 | 25.42832 | -79.75489 | 12017 ft | 278 kts | 319° |
| 2026-05-04 11:56 | 25.44380 | -79.76718 | 11875 ft | 270 kts | 319° |
| 2026-05-04 11:56 | 25.45907 | -79.77922 | 11625 ft | 268 kts | 319° |
| 2026-05-04 11:57 | 25.47425 | -79.79116 | 11332 ft | 268 kts | 319° |
| 2026-05-04 11:57 | 25.48942 | -79.80309 | 11030 ft | 267 kts | 320° |
| 2026-05-04 11:57 | 25.50456 | -79.81497 | 10747 ft | 266 kts | 320° |
| 2026-05-04 11:57 | 25.51959 | -79.82677 | 10455 ft | 265 kts | 321° |
| 2026-05-04 11:58 | 25.53459 | -79.83852 | 10168 ft | 264 kts | 321° |
| 2026-05-04 11:58 | 25.54954 | -79.85025 | 9890 ft | 262 kts | 321° |
| 2026-05-04 11:58 | 25.56439 | -79.86190 | 9581 ft | 261 kts | 321° |
| 2026-05-04 11:58 | 25.57863 | -79.87435 | 9232 ft | 260 kts | 309° |
| 2026-05-04 11:59 | 25.58832 | -79.89108 | 8936 ft | 260 kts | 298° |
| 2026-05-04 11:59 | 25.59722 | -79.90851 | 8734 ft | 257 kts | 298° |
| 2026-05-04 11:59 | 25.60598 | -79.92564 | 8467 ft | 255 kts | 298° |
| 2026-05-04 11:59 | 25.61472 | -79.94269 | 8144 ft | 255 kts | 299° |
| 2026-05-04 12:00 | 25.62349 | -79.95977 | 7854 ft | 255 kts | 299° |
| 2026-05-04 12:00 | 25.63215 | -79.97660 | 7589 ft | 254 kts | 299° |
| 2026-05-04 12:00 | 25.64094 | -79.99356 | 7367 ft | 254 kts | 299° |
| 2026-05-04 12:00 | 25.64969 | -80.01054 | 7147 ft | 253 kts | 300° |
| 2026-05-04 12:01 | 25.65840 | -80.02739 | 6857 ft | 253 kts | 299° |
| 2026-05-04 12:01 | 25.66718 | -80.04429 | 6550 ft | 253 kts | 303° |
| 2026-05-04 12:02 | 25.76482 | -80.08457 | 5097 ft | 243 kts | 343° |
| 2026-05-04 12:03 | 25.78118 | -80.08937 | 4816 ft | 242 kts | 336° |
| 2026-05-04 12:03 | 25.79511 | -80.09951 | 4430 ft | 241 kts | 315° |
| 2026-05-04 12:03 | 25.80517 | -80.11375 | 4070 ft | 237 kts | 291° |
| 2026-05-04 12:03 | 25.80735 | -80.13158 | 3713 ft | 232 kts | 271° |
| 2026-05-04 12:04 | 25.80703 | -80.14941 | 3245 ft | 230 kts | 269° |
| 2026-05-04 12:04 | 25.80628 | -80.16733 | 2618 ft | 227 kts | 269° |
| 2026-05-04 12:04 | 25.80555 | -80.18416 | 1997 ft | 222 kts | 269° |
| 2026-05-04 12:04 | 25.80484 | -80.20081 | 1760 ft | 203 kts | 271° |
| 2026-05-04 12:05 | 25.80745 | -80.21529 | 1723 ft | 187 kts | 303° |
| 2026-05-04 12:05 | 25.81585 | -80.22615 | 1782 ft | 188 kts | 314° |
| 2026-05-04 12:05 | 25.82496 | -80.23747 | 2258 ft | 203 kts | 313° |
| 2026-05-04 12:05 | 25.83624 | -80.24807 | 2706 ft | 224 kts | 334° |
| 2026-05-04 12:06 | 25.85138 | -80.25291 | 2970 ft | 231 kts | 356° |
| 2026-05-04 12:06 | 25.86695 | -80.24896 | 3005 ft | 235 kts | 27° |
| 2026-05-04 12:06 | 25.87863 | -80.23609 | 3024 ft | 244 kts | 58° |
| 2026-05-04 12:06 | 25.88290 | -80.21783 | 3025 ft | 251 kts | 90° |
| 2026-05-04 12:07 | 25.87851 | -80.19907 | 3013 ft | 251 kts | 115° |
| 2026-05-04 12:07 | 25.87079 | -80.18190 | 2998 ft | 246 kts | 117° |
| 2026-05-04 12:07 | 25.86289 | -80.16515 | 3001 ft | 247 kts | 117° |
| 2026-05-04 12:07 | 25.85489 | -80.14830 | 2997 ft | 244 kts | 117° |
| 2026-05-04 12:08 | 25.84704 | -80.13174 | 2997 ft | 241 kts | 117° |
| 2026-05-04 12:08 | 25.83921 | -80.11521 | 2995 ft | 240 kts | 118° |
| 2026-05-04 12:08 | 25.83119 | -80.09904 | 3001 ft | 238 kts | 126° |
| 2026-05-04 12:08 | 25.81888 | -80.08769 | 3006 ft | 229 kts | 159° |
| 2026-05-04 12:09 | 25.80368 | -80.08372 | 3002 ft | 230 kts | 177° |
| 2026-05-04 12:09 | 25.78766 | -80.08579 | 3025 ft | 227 kts | 199° |
| 2026-05-04 12:09 | 25.77353 | -80.09244 | 3006 ft | 224 kts | 209° |
| 2026-05-04 12:09 | 25.76041 | -80.10120 | 2862 ft | 219 kts | 216° |
| 2026-05-04 12:10 | 25.74794 | -80.11055 | 2608 ft | 211 kts | 221° |
| 2026-05-04 12:10 | 25.73889 | -80.12287 | 2537 ft | 205 kts | 240° |
| 2026-05-04 12:10 | 25.73072 | -80.13561 | 2489 ft | 205 kts | 240° |
| 2026-05-04 12:10 | 25.72640 | -80.14990 | 2428 ft | 193 kts | 278° |
| 2026-05-04 12:11 | 25.73083 | -80.16319 | 2300 ft | 181 kts | 297° |
| 2026-05-04 12:11 | 25.73549 | -80.17598 | 2048 ft | 175 kts | 293° |
| 2026-05-04 12:11 | 25.74072 | -80.18753 | 1838 ft | 159 kts | 301° |